Time;durP1;ratioP1;P1;durP2;ratioP2;P2;SDS_P1;SDS_P2;PMS_P1;PMS_P2;Temp;Humidity;BMP_temperature;BMP_pressure;BME280_temperature;BME280_humidity;BME280_pressure;Samples;Min_cycle;Max_cycle;Signal;HPM_P1;HPM_P2
2024/01/28 00:00:15;;;;;;;24.60;6.90;;;;;;;2.61;100.00;100729.31;107821;1307;22268;-47
2024/01/28 00:02:41;;;;;;;24.20;6.40;;;;;;;2.65;100.00;100727.23;107834;1307;22560;-46
2024/01/28 00:05:10;;;;;;;31.10;8.70;;;;;;;2.66;100.00;100725.16;107826;1288;22238;-45
2024/01/28 00:07:35;;;;;;;29.50;7.50;;;;;;;2.67;100.00;100723.77;107857;1307;22276;-46
2024/01/28 00:10:01;;;;;;;22.00;6.60;;;;;;;2.70;100.00;100728.28;107828;1307;22950;-47
2024/01/28 00:12:26;;;;;;;23.50;6.80;;;;;;;2.72;100.00;100731.92;107792;1289;22609;-45
2024/01/28 00:14:51;;;;;;;24.30;7.10;;;;;;;2.76;100.00;100737.28;107817;1301;22242;-47
2024/01/28 00:17:16;;;;;;;22.10;7.70;;;;;;;2.76;100.00;100736.77;107826;1308;22240;-46
2024/01/28 00:19:42;;;;;;;32.50;8.40;;;;;;;2.75;100.00;100741.09;107820;1307;22411;-45
2024/01/28 00:22:07;;;;;;;32.20;7.80;;;;;;;2.79;100.00;100743.86;107833;1284;22426;-50
2024/01/28 00:24:32;;;;;;;28.30;7.50;;;;;;;2.82;100.00;100745.95;107844;1307;23188;-47
2024/01/28 00:26:58;;;;;;;22.30;6.80;;;;;;;2.83;100.00;100742.14;107855;1307;22428;-47
2024/01/28 00:29:29;;;;;;;29.30;6.90;;;;;;;2.82;100.00;100749.23;107821;1307;22261;-45
2024/01/28 00:31:59;;;;;;;23.20;8.50;;;;;;;2.80;100.00;100749.06;107874;1291;22263;-45
2024/01/28 00:34:25;;;;;;;22.00;6.80;;;;;;;2.79;100.00;100754.43;107857;1307;22455;-46
2024/01/28 00:36:50;;;;;;;35.30;10.10;;;;;;;2.82;100.00;100757.02;107826;1307;22959;-46
2024/01/28 00:39:16;;;;;;;26.70;7.10;;;;;;;2.81;100.00;100757.73;107852;1308;23006;-47
2024/01/28 00:41:41;;;;;;;39.90;10.00;;;;;;;2.85;100.00;100758.59;107851;1307;22230;-45
2024/01/28 00:44:06;;;;;;;23.90;7.50;;;;;;;2.86;100.00;100762.58;107817;1307;22246;-45
2024/01/28 00:46:34;;;;;;;20.40;7.10;;;;;;;2.86;100.00;100758.59;107822;1289;23849;-46
2024/01/28 00:49:01;;;;;;;27.40;6.90;;;;;;;2.88;100.00;100763.44;107820;1307;22238;-45
2024/01/28 00:51:27;;;;;;;22.70;7.00;;;;;;;2.86;100.00;100768.29;107844;1308;23032;-44
2024/01/28 00:53:52;;;;;;;21.60;6.60;;;;;;;2.83;100.00;100773.14;107851;1307;22416;-46
2024/01/28 00:56:17;;;;;;;17.90;5.60;;;;;;;2.82;100.00;100781.63;107827;1289;22473;-48
2024/01/28 00:58:44;;;;;;;16.20;5.60;;;;;;;2.82;100.00;100780.41;107849;1284;22295;-44
2024/01/28 01:01:09;;;;;;;15.50;5.10;;;;;;;2.83;100.00;100784.39;107816;1308;22495;-46
2024/01/28 01:03:35;;;;;;;15.70;5.70;;;;;;;2.82;100.00;100786.30;107860;1308;22251;-47
2024/01/28 01:06:00;;;;;;;10.60;4.10;;;;;;;2.82;100.00;100786.30;107833;1287;22259;-43
2024/01/28 01:08:25;;;;;;;10.00;3.50;;;;;;;2.77;100.00;100788.20;107834;1307;22578;-45
2024/01/28 01:10:51;;;;;;;16.70;5.10;;;;;;;2.76;100.00;100792.17;107809;1308;23083;-45
2024/01/28 01:13:17;;;;;;;10.10;4.20;;;;;;;2.71;100.00;100791.14;107836;1308;22912;-45
2024/01/28 01:15:43;;;;;;;12.10;4.10;;;;;;;2.72;100.00;100794.26;107820;1307;22277;-49
2024/01/28 01:18:08;;;;;;;7.20;3.20;;;;;;;2.74;100.00;100790.29;107833;1307;22252;-45
2024/01/28 01:20:33;;;;;;;8.40;4.10;;;;;;;2.74;100.00;100786.98;107839;1308;22476;-48
2024/01/28 01:22:59;;;;;;;10.00;3.90;;;;;;;2.72;100.00;100790.97;107828;1307;22439;-45
2024/01/28 01:25:24;;;;;;;11.90;4.10;;;;;;;2.68;100.00;100790.27;107848;1292;22339;-45
2024/01/28 01:27:52;;;;;;;9.00;3.80;;;;;;;2.73;100.00;100792.52;107814;1307;22427;-45
2024/01/28 01:30:18;;;;;;;10.10;4.30;;;;;;;2.73;100.00;100796.33;107854;1285;22258;-44
2024/01/28 01:32:43;;;;;;;14.00;4.80;;;;;;;2.75;100.00;100794.27;107817;1308;22976;-47
2024/01/28 01:35:09;;;;;;;9.20;3.60;;;;;;;2.79;100.00;100795.65;107846;1308;22259;-43
2024/01/28 01:37:34;;;;;;;12.30;4.70;;;;;;;2.78;100.00;100793.92;107818;1308;22271;-48
2024/01/28 01:40:00;;;;;;;12.50;5.30;;;;;;;2.81;100.00;100791.84;107840;1284;22420;-45
2024/01/28 01:42:26;;;;;;;16.10;4.20;;;;;;;2.82;100.00;100794.27;107823;1307;22440;-44
2024/01/28 01:44:52;;;;;;;10.90;3.80;;;;;;;2.84;100.00;100793.23;107827;1307;22244;-49
2024/01/28 01:47:17;;;;;;;8.00;3.30;;;;;;;2.87;100.00;100790.29;107821;1289;22534;-47
2024/01/28 01:49:43;;;;;;;8.20;3.40;;;;;;;2.84;100.00;100792.54;107807;1289;22237;-46
2024/01/28 01:52:09;;;;;;;11.80;3.90;;;;;;;2.77;100.00;100792.53;107825;1307;22602;-45
2024/01/28 01:54:35;;;;;;;11.50;4.70;;;;;;;2.72;100.00;100790.45;107851;1294;22960;-46
2024/01/28 01:57:01;;;;;;;9.30;3.90;;;;;;;2.74;100.00;100790.27;107833;1308;22451;-46
2024/01/28 01:59:27;;;;;;;10.60;4.00;;;;;;;2.70;100.00;100785.42;107810;1308;22476;-46
2024/01/28 02:01:54;;;;;;;9.70;3.90;;;;;;;2.70;100.00;100785.08;107813;1307;22416;-46
2024/01/28 02:04:20;;;;;;;9.20;4.70;;;;;;;2.75;100.00;100789.42;107813;1285;22342;-44
2024/01/28 02:06:46;;;;;;;10.60;4.80;;;;;;;2.78;100.00;100790.11;107803;1291;23087;-46
2024/01/28 02:09:12;;;;;;;13.50;4.60;;;;;;;2.80;100.00;100787.16;107823;1284;22255;-44
2024/01/28 02:11:37;;;;;;;11.00;5.40;;;;;;;2.80;100.00;100790.45;107835;1289;22252;-44
2024/01/28 02:14:02;;;;;;;13.60;5.20;;;;;;;2.82;100.00;100788.55;107585;1308;22236;-46
2024/01/28 02:16:28;;;;;;;9.20;5.50;;;;;;;2.81;100.00;100789.94;107839;1285;22433;-51
2024/01/28 02:18:53;;;;;;;14.60;5.80;;;;;;;2.80;100.00;100790.64;107824;1291;25145;-44
2024/01/28 02:21:18;;;;;;;14.60;6.40;;;;;;;2.82;100.00;100790.98;107837;1290;22456;-45
2024/01/28 02:23:44;;;;;;;16.00;6.60;;;;;;;2.84;100.00;100789.60;107839;1308;23602;-45
2024/01/28 02:26:09;;;;;;;10.10;6.00;;;;;;;2.88;100.00;100783.02;107817;1307;22207;-47
2024/01/28 02:28:34;;;;;;;14.90;6.00;;;;;;;2.90;100.00;100787.52;107816;1289;22452;-45
2024/01/28 02:31:00;;;;;;;13.80;5.80;;;;;;;2.88;100.00;100789.59;107802;1289;22268;-45
2024/01/28 02:33:25;;;;;;;13.20;5.70;;;;;;;2.88;100.00;100786.82;107824;1308;23016;-47
2024/01/28 02:35:51;;;;;;;9.80;4.80;;;;;;;2.91;100.00;100788.21;107821;1290;22441;-44
2024/01/28 02:38:16;;;;;;;8.20;3.90;;;;;;;2.94;100.00;100789.77;107810;1290;22746;-44
2024/01/28 02:43:38;;;;;;;9.50;3.70;;;;;;;2.90;100.00;100790.80;106978;1310;545124;-44
2024/01/28 02:46:05;;;;;;;5.20;3.10;;;;;;;2.90;100.00;100785.61;107392;1292;22437;-44
2024/01/28 02:48:30;;;;;;;11.50;4.50;;;;;;;2.87;100.00;100786.65;107355;1313;23034;-45
2024/01/28 02:50:55;;;;;;;11.30;3.50;;;;;;;2.89;100.00;100788.04;107367;1295;23226;-43
2024/01/28 02:53:21;;;;;;;9.50;4.00;;;;;;;2.91;100.00;100785.95;107372;1292;22266;-43
2024/01/28 02:55:49;;;;;;;7.00;3.40;;;;;;;2.88;100.00;100790.46;107361;1292;22319;-44
2024/01/28 02:58:14;;;;;;;8.10;3.40;;;;;;;2.87;100.00;100794.27;107434;1311;147045;-46
2024/01/28 03:00:39;;;;;;;8.00;3.10;;;;;;;2.87;100.00;100796.34;107575;1311;22251;-47
2024/01/28 03:03:08;;;;;;;9.20;3.20;;;;;;;2.85;100.00;100799.46;107668;1310;23194;-47
2024/01/28 03:05:34;;;;;;;5.80;2.90;;;;;;;2.82;100.00;100804.16;107658;1292;22375;-45
2024/01/28 03:07:59;;;;;;;7.10;3.40;;;;;;;2.85;100.00;100802.07;107680;1310;22146;-45
2024/01/28 03:10:25;;;;;;;14.10;4.10;;;;;;;2.84;100.00;100805.35;107683;1310;22240;-44
2024/01/28 03:12:50;;;;;;;9.70;3.70;;;;;;;2.85;100.00;100805.36;107668;1310;22278;-44
2024/01/28 03:15:17;;;;;;;11.20;3.50;;;;;;;2.87;100.00;100808.30;106915;1310;25263;-44
2024/01/28 03:17:43;;;;;;;8.20;2.60;;;;;;;2.91;100.00;100815.05;107653;1310;22494;-44
2024/01/28 03:20:09;;;;;;;10.20;3.00;;;;;;;2.92;100.00;100817.84;107679;1310;22933;-45
2024/01/28 03:22:34;;;;;;;7.70;3.20;;;;;;;2.91;100.00;100821.81;107692;1291;22249;-46
2024/01/28 03:24:59;;;;;;;5.20;3.70;;;;;;;2.92;100.00;100826.33;107677;1310;22262;-45
2024/01/28 03:27:24;;;;;;;8.60;3.30;;;;;;;2.97;100.00;100833.61;107693;1289;22248;-45
2024/01/28 03:29:50;;;;;;;8.80;3.00;;;;;;;2.94;100.00;100836.38;107656;1310;22276;-46
2024/01/28 03:32:15;;;;;;;5.30;2.70;;;;;;;3.00;100.00;100839.31;107661;1310;22143;-44
2024/01/28 03:34:41;;;;;;;5.70;2.80;;;;;;;2.99;100.00;100843.13;107705;1309;22261;-45
2024/01/28 03:37:06;;;;;;;10.40;3.30;;;;;;;2.99;100.00;100846.61;107700;1292;22217;-44
2024/01/28 03:39:31;;;;;;;7.90;2.60;;;;;;;2.96;100.00;100852.13;107698;1309;23319;-43
2024/01/28 03:41:57;;;;;;;7.20;3.40;;;;;;;2.95;100.00;100855.09;107680;1310;22436;-44
2024/01/28 03:44:22;;;;;;;10.90;3.30;;;;;;;2.92;100.00;100856.47;107737;1286;22263;-45
2024/01/28 03:46:47;;;;;;;8.80;3.10;;;;;;;2.91;100.00;100851.45;107705;1292;22642;-45
2024/01/28 03:49:13;;;;;;;9.50;3.40;;;;;;;2.89;100.00;100853.86;107691;1309;22243;-47
2024/01/28 03:51:38;;;;;;;9.40;3.10;;;;;;;2.86;100.00;100853.16;107699;1309;22427;-46
2024/01/28 03:54:03;;;;;;;9.40;3.50;;;;;;;2.88;100.00;100857.32;107710;1291;23934;-46
2024/01/28 03:56:28;;;;;;;7.90;3.50;;;;;;;2.91;100.00;100857.85;107697;1301;23489;-45
2024/01/28 03:58:54;;;;;;;6.70;2.80;;;;;;;2.96;100.00;100858.89;107704;1286;22262;-45
2024/01/28 04:01:32;;;;;;;13.10;3.70;;;;;;;2.94;100.00;100860.97;107577;1310;22337;-47
2024/01/28 04:03:57;;;;;;;5.10;2.90;;;;;;;2.96;100.00;100864.79;107623;1310;22894;-46
2024/01/28 04:06:24;;;;;;;9.40;3.00;;;;;;;2.96;100.00;100869.12;107611;1292;23014;-45
2024/01/28 04:08:52;;;;;;;7.50;3.10;;;;;;;2.98;100.00;100868.60;107671;1310;22252;-44
2024/01/28 04:11:17;;;;;;;4.50;2.50;;;;;;;3.01;100.00;100872.23;107608;1310;22244;-47
2024/01/28 04:13:42;;;;;;;8.30;2.90;;;;;;;3.01;100.00;100872.76;107628;1310;22250;-44
2024/01/28 04:16:08;;;;;;;10.50;4.20;;;;;;;2.99;100.00;100875.87;107613;1310;22446;-44
2024/01/28 04:18:33;;;;;;;6.40;3.50;;;;;;;2.94;100.00;100868.59;107630;1310;24464;-47
2024/01/28 04:20:58;;;;;;;8.80;4.00;;;;;;;2.93;100.00;100868.41;107652;1291;22260;-45
2024/01/28 04:23:23;;;;;;;7.00;3.70;;;;;;;2.94;100.00;100865.82;107629;1289;22772;-45
2024/01/28 04:25:49;;;;;;;8.10;3.30;;;;;;;2.94;100.00;100866.17;107636;1291;22533;-45
2024/01/28 04:28:14;;;;;;;5.30;3.30;;;;;;;2.95;100.00;100864.27;107630;1289;22259;-46
2024/01/28 04:30:40;;;;;;;9.90;3.90;;;;;;;2.99;100.00;100867.20;107610;1292;22536;-44
2024/01/28 04:33:05;;;;;;;7.90;3.30;;;;;;;3.01;100.00;100869.64;107598;1310;22237;-43
2024/01/28 04:35:30;;;;;;;7.70;3.00;;;;;;;3.03;100.00;100876.74;107626;1289;23651;-44
2024/01/28 04:37:57;;;;;;;10.50;3.40;;;;;;;3.03;100.00;100878.48;107619;1310;23863;-44
2024/01/28 04:40:22;;;;;;;6.50;3.30;;;;;;;3.03;100.00;100882.63;107631;1310;22249;-44
2024/01/28 04:42:47;;;;;;;7.70;3.50;;;;;;;3.05;100.00;100884.71;107750;1285;23058;-45
2024/01/28 04:45:12;;;;;;;11.30;3.80;;;;;;;3.04;100.00;100885.07;107791;1309;22411;-45
2024/01/28 04:47:38;;;;;;;7.00;3.70;;;;;;;3.06;100.00;100881.08;107778;1308;22329;-47
2024/01/28 04:50:04;;;;;;;7.90;3.40;;;;;;;3.07;100.00;100887.84;107773;1285;22284;-48
2024/01/28 04:52:30;;;;;;;6.60;3.40;;;;;;;3.01;100.00;100889.39;107783;1286;22359;-43
2024/01/28 04:54:55;;;;;;;6.90;3.70;;;;;;;2.95;100.00;100897.00;107782;1285;22313;-46
2024/01/28 04:57:20;;;;;;;10.30;3.80;;;;;;;2.97;100.00;100897.01;107778;1309;23331;-46
2024/01/28 04:59:46;;;;;;;10.20;3.90;;;;;;;2.98;100.00;100897.36;107766;1286;22444;-45
2024/01/28 05:02:11;;;;;;;7.00;3.40;;;;;;;3.01;100.00;100903.42;107778;1289;22466;-43
2024/01/28 05:04:36;;;;;;;7.60;3.60;;;;;;;3.02;100.00;100910.02;107788;1309;22413;-43
2024/01/28 05:07:01;;;;;;;7.20;3.10;;;;;;;3.06;100.00;100908.80;107750;1308;22262;-45
2024/01/28 05:09:27;;;;;;;9.70;4.20;;;;;;;3.06;100.00;100910.36;107764;1309;22250;-44
2024/01/28 05:11:53;;;;;;;12.30;3.90;;;;;;;3.09;100.00;100908.29;107779;1286;22698;-44
2024/01/28 05:14:18;;;;;;;8.30;3.60;;;;;;;3.09;100.00;100911.05;107777;1289;23529;-44
2024/01/28 05:16:47;;;;;;;13.80;4.10;;;;;;;3.12;100.00;100914.02;107773;1308;22316;-44
2024/01/28 05:19:12;;;;;;;8.00;3.70;;;;;;;3.16;100.00;100917.48;107800;1308;22225;-47
2024/01/28 05:21:38;;;;;;;15.20;4.80;;;;;;;3.20;100.00;100925.27;107832;1289;22240;-43
2024/01/28 05:24:05;;;;;;;14.50;4.60;;;;;;;3.20;100.00;100937.08;107827;1285;22821;-46
2024/01/28 05:26:31;;;;;;;11.40;5.00;;;;;;;3.22;100.00;100934.30;107828;1288;22264;-45
2024/01/28 05:29:02;;;;;;;11.50;3.60;;;;;;;3.27;100.00;100929.80;107847;1289;22245;-45
2024/01/28 05:31:27;;;;;;;6.40;3.60;;;;;;;3.29;100.00;100934.48;107804;1308;22204;-45
2024/01/28 05:33:53;;;;;;;16.70;4.90;;;;;;;3.29;100.00;100940.04;107831;1289;22409;-47
2024/01/28 05:36:18;;;;;;;7.30;3.60;;;;;;;3.27;100.00;100939.15;107820;1289;22403;-46
2024/01/28 05:38:44;;;;;;;9.70;3.50;;;;;;;3.24;100.00;100934.14;107812;1308;22241;-45
2024/01/28 05:41:10;;;;;;;7.90;3.60;;;;;;;3.24;100.00;100936.39;107810;1308;22401;-46
2024/01/28 05:43:35;;;;;;;9.00;4.40;;;;;;;3.25;100.00;100940.20;107838;1288;22258;-47
2024/01/28 05:46:01;;;;;;;16.40;4.90;;;;;;;3.26;100.00;100938.28;107815;1308;22333;-46
2024/01/28 05:48:27;;;;;;;21.70;6.30;;;;;;;3.30;100.00;100934.83;107864;1285;22460;-46
2024/01/28 05:50:52;;;;;;;9.50;5.30;;;;;;;3.32;100.00;100936.40;107835;1288;22444;-45
2024/01/28 05:53:18;;;;;;;10.30;5.20;;;;;;;3.36;100.00;100940.56;107820;1308;22407;-47
2024/01/28 05:55:43;;;;;;;21.80;6.10;;;;;;;3.34;100.00;100942.64;107828;1308;22314;-45
2024/01/28 05:58:08;;;;;;;15.40;6.40;;;;;;;3.33;100.00;100937.09;107826;1308;22484;-46
2024/01/28 06:00:34;;;;;;;13.70;6.80;;;;;;;3.39;100.00;100938.65;107601;1308;23192;-44
2024/01/28 06:02:59;;;;;;;16.00;6.80;;;;;;;3.43;100.00;100935.00;107832;1288;22362;-46
2024/01/28 06:05:24;;;;;;;16.70;7.70;;;;;;;3.50;100.00;100938.14;107831;1285;22399;-46
2024/01/28 06:07:50;;;;;;;16.80;7.60;;;;;;;3.55;100.00;100942.99;107826;1308;22876;-45
2024/01/28 06:10:15;;;;;;;13.60;5.90;;;;;;;3.59;100.00;100941.95;107806;1308;22914;-44
2024/01/28 06:12:41;;;;;;;10.30;5.70;;;;;;;3.61;100.00;100951.66;107828;1288;22308;-47
2024/01/28 06:15:08;;;;;;;11.90;4.80;;;;;;;3.63;100.00;100961.20;107840;1308;22409;-45
2024/01/28 06:17:36;;;;;;;10.20;4.10;;;;;;;3.59;100.00;100967.96;107725;1308;22287;-46
2024/01/28 06:20:03;;;;;;;9.90;4.40;;;;;;;3.58;100.00;100970.21;107814;1308;22238;-45
2024/01/28 06:22:28;;;;;;;12.50;6.00;;;;;;;3.59;100.00;100970.04;107801;1308;22454;-45
2024/01/28 06:24:53;;;;;;;11.30;5.60;;;;;;;3.62;100.00;100971.09;107823;1289;22250;-44
2024/01/28 06:27:19;;;;;;;11.70;5.10;;;;;;;3.66;100.00;100966.05;107819;1308;22435;-46
2024/01/28 06:29:47;;;;;;;17.30;5.80;;;;;;;3.70;100.00;100968.83;107816;1308;22244;-44
2024/01/28 06:32:12;;;;;;;17.00;6.60;;;;;;;3.72;100.00;100968.65;107818;1288;22950;-45
2024/01/28 06:34:37;;;;;;;20.10;8.10;;;;;;;3.73;100.00;100970.39;107806;1308;22308;-44
2024/01/28 06:37:03;;;;;;;20.70;8.90;;;;;;;3.73;100.00;100975.42;107818;1288;22209;-46
2024/01/28 06:39:28;;;;;;;15.40;7.80;;;;;;;3.71;100.00;100983.05;107825;1288;22274;-44
2024/01/28 06:41:53;;;;;;;14.80;5.80;;;;;;;3.73;100.00;100985.84;107816;1289;23223;-44
2024/01/28 06:44:19;;;;;;;21.70;11.20;;;;;;;3.72;100.00;100987.91;107796;1308;22236;-45
2024/01/28 06:46:44;;;;;;;12.80;6.20;;;;;;;3.72;100.00;100994.16;107809;1308;22228;-46
2024/01/28 06:49:10;;;;;;;11.70;5.90;;;;;;;3.73;100.00;100993.46;107812;1288;22246;-44
2024/01/28 06:51:40;;;;;;;12.80;6.50;;;;;;;3.76;100.00;100994.85;107799;1308;22333;-44
2024/01/28 06:54:05;;;;;;;14.50;7.60;;;;;;;3.78;100.00;100996.94;107808;1308;23101;-43
2024/01/28 06:56:31;;;;;;;16.00;7.70;;;;;;;3.78;100.00;100992.77;107812;1286;22470;-46
2024/01/28 06:58:56;;;;;;;16.20;7.80;;;;;;;3.81;100.00;100991.55;107793;1285;22313;-43
2024/01/28 07:01:21;;;;;;;18.30;9.40;;;;;;;3.83;100.00;100987.73;107791;1308;22442;-44
2024/01/28 07:03:46;;;;;;;15.10;9.80;;;;;;;3.82;100.00;100988.08;107784;1308;22247;-44
2024/01/28 07:06:15;;;;;;;15.80;10.00;;;;;;;3.85;100.00;100984.25;107811;1288;22242;-44
2024/01/28 07:08:40;;;;;;;16.00;9.10;;;;;;;3.84;100.00;100987.73;107807;1290;23002;-45
2024/01/28 07:11:05;;;;;;;18.30;9.80;;;;;;;3.83;100.00;100992.94;107803;1300;22258;-44
2024/01/28 07:13:31;;;;;;;16.50;9.10;;;;;;;3.82;100.00;100994.67;107822;1285;23901;-45
2024/01/28 07:15:56;;;;;;;14.50;8.70;;;;;;;3.83;100.00;101000.92;107822;1308;22399;-45
2024/01/28 07:18:21;;;;;;;16.70;8.60;;;;;;;3.84;100.00;101002.14;107804;1308;22309;-45
2024/01/28 07:20:47;;;;;;;19.80;8.20;;;;;;;3.87;100.00;101001.26;107825;1288;22941;-46
2024/01/28 07:23:12;;;;;;;17.70;8.00;;;;;;;3.90;100.00;101002.66;107791;1288;22883;-44
2024/01/28 07:25:37;;;;;;;15.90;7.20;;;;;;;3.91;100.00;101007.16;107797;1308;22464;-44
2024/01/28 07:28:03;;;;;;;12.90;5.90;;;;;;;3.91;100.00;101009.77;107796;1308;22285;-45
2024/01/28 07:30:30;;;;;;;11.90;6.00;;;;;;;3.92;100.00;101007.34;107817;1297;22246;-44
2024/01/28 07:32:55;;;;;;;13.00;7.20;;;;;;;3.92;100.00;101010.11;107829;1288;22238;-44
2024/01/28 07:35:20;;;;;;;14.50;7.50;;;;;;;3.90;100.00;101015.31;107832;1308;23012;-46
2024/01/28 07:37:46;;;;;;;43.20;22.50;;;;;;;3.91;100.00;101015.85;107809;1308;22252;-46
2024/01/28 07:40:11;;;;;;;28.80;13.80;;;;;;;3.90;100.00;101019.83;107813;1308;22486;-43
2024/01/28 07:42:36;;;;;;;49.00;23.60;;;;;;;3.91;100.00;101020.01;107804;1288;23448;-47
2024/01/28 07:45:02;;;;;;;56.30;28.90;;;;;;;3.91;100.00;101023.48;107806;1308;22831;-45
2024/01/28 07:47:27;;;;;;;24.00;13.50;;;;;;;3.94;100.00;101026.25;107846;1288;22232;-45
2024/01/28 07:49:53;;;;;;;22.20;10.10;;;;;;;3.98;100.00;101027.29;107806;1301;22484;-45
2024/01/28 07:52:18;;;;;;;22.50;11.60;;;;;;;4.00;100.00;101026.77;107815;1285;22279;-44
2024/01/28 07:54:43;;;;;;;19.70;9.30;;;;;;;4.02;100.00;101028.85;107794;1308;22160;-45
2024/01/28 07:57:08;;;;;;;22.30;10.30;;;;;;;4.01;100.00;101030.77;107791;1285;23160;-44
2024/01/28 07:59:34;;;;;;;17.20;10.80;;;;;;;4.04;100.00;101033.02;107803;1308;22236;-45
2024/01/28 08:01:59;;;;;;;28.30;13.60;;;;;;;4.08;100.00;101033.02;107798;1308;23105;-45
2024/01/28 08:04:24;;;;;;;27.70;14.40;;;;;;;4.11;100.00;101034.58;107802;1308;22998;-44
2024/01/28 08:06:49;;;;;;;19.40;10.70;;;;;;;4.14;100.00;101037.17;107823;1308;22237;-45
2024/01/28 08:09:18;;;;;;;18.30;8.90;;;;;;;4.13;100.00;101032.66;107764;1308;22244;-45
2024/01/28 08:11:43;;;;;;;25.20;11.70;;;;;;;4.13;100.00;101035.44;107790;1288;22315;-46
2024/01/28 08:14:09;;;;;;;15.40;7.90;;;;;;;4.14;100.00;101035.62;107787;1308;22237;-45
2024/01/28 08:16:34;;;;;;;21.10;9.50;;;;;;;4.07;100.00;101033.54;107840;1288;23292;-44
2024/01/28 08:19:09;;;;;;;15.30;9.40;;;;;;;4.08;100.00;101038.05;107808;1308;22238;-44
2024/01/28 08:21:34;;;;;;;21.40;11.00;;;;;;;4.10;100.00;101037.88;107794;1308;22211;-44
2024/01/28 08:23:59;;;;;;;22.50;11.10;;;;;;;4.09;100.00;101037.00;107817;1288;22895;-45
2024/01/28 08:26:25;;;;;;;14.90;7.10;;;;;;;4.12;100.00;101041.52;107836;1288;22522;-44
2024/01/28 08:28:54;;;;;;;15.80;6.80;;;;;;;4.14;100.00;101042.89;107823;1308;22265;-44
2024/01/28 08:31:20;;;;;;;16.80;8.10;;;;;;;4.12;100.00;101040.46;107823;1308;22357;-47
2024/01/28 08:33:45;;;;;;;22.50;9.00;;;;;;;4.09;100.00;101040.83;107811;1289;23010;-45
2024/01/28 08:36:10;;;;;;;16.30;7.20;;;;;;;4.16;100.00;101039.77;107808;1288;22423;-44
2024/01/28 08:38:35;;;;;;;16.60;6.00;;;;;;;4.17;100.00;101041.50;107812;1285;23228;-46
2024/01/28 08:41:01;;;;;;;17.80;7.20;;;;;;;4.15;100.00;101045.68;107841;1285;22422;-46
2024/01/28 08:43:30;;;;;;;22.80;7.20;;;;;;;4.23;100.00;101046.36;107786;1308;22400;-46
2024/01/28 08:45:56;;;;;;;14.20;6.80;;;;;;;4.29;100.00;101048.10;107815;1308;22245;-47
2024/01/28 08:48:21;;;;;;;14.50;6.20;;;;;;;4.30;100.00;101050.35;107797;1286;22234;-44
2024/01/28 08:50:48;;;;;;;11.40;5.40;;;;;;;4.31;100.00;101050.17;107806;1308;22243;-47
2024/01/28 08:53:14;;;;;;;14.00;6.70;;;;;;;4.34;100.00;101051.39;107800;1308;22898;-44
2024/01/28 08:55:39;;;;;;;16.50;7.80;;;;;;;4.28;100.00;101051.58;107801;1308;22959;-49
2024/01/28 08:58:05;;;;;;;19.00;7.20;;;;;;;4.26;100.00;101046.35;107786;1308;22237;-46
2024/01/28 09:00:31;;;;;;;9.50;5.70;;;;;;;4.32;100.00;101050.00;107840;1288;23773;-44
2024/01/28 09:02:56;;;;;;;11.50;5.90;;;;;;;4.34;100.00;101054.52;107822;1285;22317;-47
2024/01/28 09:05:22;;;;;;;7.30;5.10;;;;;;;4.27;100.00;101060.94;107857;1308;22538;-45
2024/01/28 09:07:48;;;;;;;12.00;5.10;;;;;;;4.25;100.00;101062.67;107868;1308;23298;-45
2024/01/28 09:10:13;;;;;;;9.50;5.50;;;;;;;4.28;100.00;101065.45;107866;1308;22396;-45
2024/01/28 09:12:38;;;;;;;14.00;5.20;;;;;;;4.34;100.00;101060.41;107847;1308;22286;-46
2024/01/28 09:15:05;;;;;;;12.40;5.70;;;;;;;4.49;100.00;101060.73;107873;1308;22226;-46
2024/01/28 09:17:30;;;;;;;12.80;6.80;;;;;;;4.62;100.00;101060.36;107873;1308;22395;-45
2024/01/28 09:19:56;;;;;;;13.40;5.20;;;;;;;4.76;100.00;101058.93;107865;1288;22301;-45
2024/01/28 09:22:21;;;;;;;45.60;19.60;;;;;;;4.81;100.00;101062.73;107825;1308;22862;-44
2024/01/28 09:24:47;;;;;;;12.50;7.30;;;;;;;4.88;100.00;101065.49;107862;1308;22257;-45
2024/01/28 09:27:12;;;;;;;9.90;5.20;;;;;;;4.95;100.00;101069.82;107875;1308;22244;-44
2024/01/28 09:29:38;;;;;;;12.80;5.20;;;;;;;4.94;100.00;101071.90;107867;1308;22918;-45
2024/01/28 09:32:03;;;;;;;7.90;4.80;;;;;;;4.96;100.00;101069.28;107877;1285;22250;-47
2024/01/28 09:34:29;;;;;;;12.70;5.40;;;;;;;4.98;100.00;101070.33;107856;1308;23100;-45
2024/01/28 09:36:54;;;;;;;9.40;4.90;;;;;;;5.09;100.00;101067.67;107872;1308;22252;-47
2024/01/28 09:39:19;;;;;;;50.40;25.10;;;;;;;4.98;100.00;101069.11;107805;1291;22267;-45
2024/01/28 09:41:54;;;;;;;9.20;5.90;;;;;;;5.00;100.00;101069.27;107871;1289;23208;-44
2024/01/28 09:44:20;;;;;;;7.80;4.10;;;;;;;5.09;100.00;101069.23;107878;1292;22696;-45
2024/01/28 09:46:45;;;;;;;10.40;4.80;;;;;;;5.07;100.00;101070.64;107872;1285;22300;-44
2024/01/28 09:49:11;;;;;;;32.60;13.70;;;;;;;5.13;100.00;101061.41;107839;1289;22322;-48
2024/01/28 09:51:42;;;;;;;26.10;11.90;;;;;;;5.17;100.00;101054.27;107840;1308;22246;-44
2024/01/28 09:54:09;;;;;;;34.60;15.30;;;;;;;5.27;100.00;101058.73;107858;1307;23094;-48
2024/01/28 09:56:35;;;;;;;17.60;9.60;;;;;;;5.31;100.00;101058.53;107880;1308;23045;-45
2024/01/28 09:59:01;;;;;;;9.30;4.90;;;;;;;5.32;100.00;101060.96;107886;1300;23034;-44
2024/01/28 10:01:29;;;;;;;9.90;3.90;;;;;;;5.31;100.00;101059.92;107843;1308;23223;-46
2024/01/28 10:03:55;;;;;;;9.50;3.90;;;;;;;5.25;100.00;101057.00;107844;1308;23126;-45
2024/01/28 10:06:21;;;;;;;9.10;3.90;;;;;;;5.19;100.00;101060.50;107868;1288;22217;-46
2024/01/28 10:08:46;;;;;;;8.60;3.90;;;;;;;5.05;100.00;101069.60;107854;1308;22248;-46
2024/01/28 10:11:14;;;;;;;9.10;4.30;;;;;;;5.09;100.00;101071.67;107852;1308;23152;-48
2024/01/28 10:13:40;;;;;;;12.40;6.40;;;;;;;5.05;100.00;101071.52;107850;1308;22302;-47
2024/01/28 10:16:06;;;;;;;17.20;9.60;;;;;;;5.08;100.00;101074.11;107862;1298;22390;-43
2024/01/28 10:18:31;;;;;;;21.30;11.50;;;;;;;5.13;100.00;101072.52;107860;1308;22394;-45
2024/01/28 10:20:56;;;;;;;23.70;11.10;;;;;;;5.18;100.00;101068.86;107845;1288;22327;-44
2024/01/28 10:23:22;;;;;;;175.20;73.10;;;;;;;5.25;100.00;101065.34;107826;1307;22226;-44
2024/01/28 10:25:47;;;;;;;85.60;39.80;;;;;;;5.28;100.00;101064.10;107829;1308;22259;-44
2024/01/28 10:28:17;;;;;;;96.50;46.30;;;;;;;5.31;100.00;101067.57;107867;1308;22891;-44
2024/01/28 10:30:42;;;;;;;67.20;31.60;;;;;;;5.27;100.00;101069.50;107880;1288;22247;-44
2024/01/28 10:33:08;;;;;;;43.90;22.90;;;;;;;5.25;100.00;101071.43;107844;1288;22459;-45
2024/01/28 10:35:33;;;;;;;26.10;13.70;;;;;;;5.27;100.00;101076.64;107857;1289;22378;-44
2024/01/28 10:38:00;;;;;;;20.80;9.50;;;;;;;5.24;100.00;101083.09;107874;1308;22339;-45
2024/01/28 10:40:32;;;;;;;18.30;7.30;;;;;;;5.23;100.00;101087.96;107847;1308;22429;-47
2024/01/28 10:43:01;;;;;;;18.10;7.90;;;;;;;5.24;100.00;101082.74;107855;1289;22228;-45
2024/01/28 10:45:27;;;;;;;16.20;8.50;;;;;;;5.28;100.00;101078.73;107829;1307;22219;-46
2024/01/28 10:47:59;;;;;;;18.00;8.30;;;;;;;5.31;100.00;101077.48;107841;1308;22424;-46
2024/01/28 10:50:31;;;;;;;22.00;9.70;;;;;;;5.33;100.00;101079.40;107852;1308;22225;-46
2024/01/28 10:52:59;;;;;;;16.60;7.80;;;;;;;5.25;100.00;101082.22;107852;1308;22291;-48
2024/01/28 10:55:25;;;;;;;23.40;12.00;;;;;;;5.20;100.00;101079.61;107850;1308;22436;-48
2024/01/28 10:57:52;;;;;;;22.70;9.30;;;;;;;5.15;100.00;101081.56;107841;1308;22210;-46
2024/01/28 11:00:20;;;;;;;;;;;;;;;5.14;100.00;101076.86;107857;1292;22413;-45
2024/01/28 11:02:47;;;;;;;23.40;9.00;;;;;;;5.14;100.00;101075.48;107871;1288;22885;-47
2024/01/28 11:05:13;;;;;;;22.40;9.70;;;;;;;5.13;100.00;101076.00;107815;1293;22437;-46
2024/01/28 11:07:38;;;;;;;20.40;9.60;;;;;;;5.10;100.00;101072.38;107836;1308;22206;-46